Historyczne dane pomiarowe

Dodano dane terminowe – wersja testowa.

Dane z okresu 1951-2019

Wersja bazy: 1.34 [2019-03-16, lista zmian], aktualizacja planowana na 2019-04-15

Dane meteo z obszaru Polski uzyskane na podstawie danych udostępnionych przez Instytut Meteorologii i Gospodarki Wodnej – Państwowy Instytut Badawczy.

 

Wybierz Datę:    

       

TemperaturaWilgotnośćWiatrCiśnienieOpadyŚniegCzas trwania zjawisk
 Stacja t tx tn tng RH VA  wxwx mslp ppp RRR   cm mm wxwxwxwxwxwxwx
1967-12-13 -7.3 -6.3-13.9--- 7.7 0.3---- 0.0-- 3---------
1967-12-14 -5.2 -4.4 -8.1--- 8.0 1.3---- 0.0-- 3---------
1967-12-15 -2.4 -0.5 -5.9--- 8.0 2.3---- 0.0-- 3---------
1967-12-16 -0.6 0.7 -2.4--- 8.0 3.0---- 2.8-- 3---------
1967-12-17 -0.7 1.3 -2.5--- 6.3 4.3---- 0.4-- 5---------
1967-12-18 -2.4 0.4 -4.8--- 7.0 5.7---- 1.6-- 6---------
1967-12-19 -7.6 -2.1-19.2--- 7.0 1.7---- 7.6-- 9---------
1967-12-20-10.2 -2.1-14.8--- 4.0 9.3---- 0.0-- 16---------
1967-12-21 -6.7 -5.0-15.6--- 5.7 4.0---- 0.0-- 16---------
1967-12-22 -5.0 -4.6 -6.7--- 8.0 2.3---- 5.0-- 16---------
1967-12-23 2.9 3.6 -4.9--- 8.0 3.3---- 13.4-- 19---------
1967-12-24 6.4 8.6 3.4--- 5.3 2.3---- 7.0------------
1967-12-25 1.7 6.3 0.4--- 6.0 0.7---- 2.9------------
1967-12-26 1.4 5.2 -0.2--- 6.3 1.0---- 0.0------------
1967-12-27 -2.8 2.4 -6.4--- 3.0 3.3---- 0.0------------
1967-12-28 -7.8 -3.0-10.4--- 0.0 0.7---- 0.0------------
1967-12-29 -3.7 -1.6-11.1--- 7.7 0.3---- 3.9------------
1967-12-30 -0.5 0.3 -1.8--- 8.0 0.0---- 3.2-- 5---------
1967-12-31 -6.1 -0.2-14.1--- 6.7 1.0---- 0.0-- 8---------
1968-01-01-10.1 -4.1-18.7--- 5.0 0.0---- 3.4-- 8---------
1968-01-02 -7.6 -2.9-12.7--- 7.7 2.7---- 2.0-- 12---------
1968-01-03 -9.6 -2.1-17.3--- 7.3 0.7---- 0.0-- 14---------
1968-01-04-11.0 -3.6-17.5--- 7.3 0.7---- 0.0-- 14---------
1968-01-05 -5.6 -3.0-17.0--- 8.0 1.0---- 1.8-- 14---------
1968-01-06 -4.4 -3.0 -6.6--- 8.0 2.7---- 2.4-- 16---------
1968-01-07 -7.9 -3.6 -9.7--- 8.0 2.7---- 0.0-- 19---------
1968-01-08-12.5 -9.5-16.4--- 5.3 0.3---- 0.2-- 19---------
1968-01-09-14.3 -7.4-19.8--- 4.7 1.3---- 0.7-- 19---------
1968-01-10-20.4-13.2-27.4--- 4.0 1.7---- 0.0-- 20---------
1968-01-11-16.8-11.1-30.8--- 2.7 1.3---- 0.0-- 18---------
296.2 ms

 

Źródłem pochodzenia danych jest Instytut Meteorologii i Gospodarki Wodnej – Państwowy Instytut Badawczy. Dane Instytutu Meteorologii i Gospodarki Wodnej – Państwowego Instytutu Badawczego zostały przetworzone.

Dane źródłowe można odnaleźć na stronie https://dane.imgw.pl